createdAt,value
2019-06-01T00:01:17.905Z,25.8
2019-06-01T00:06:29.482Z,25.8
2019-06-01T00:17:00.810Z,25.8
2019-06-01T00:22:12.087Z,25.9
2019-06-01T00:27:23.114Z,25.8
2019-06-01T00:32:34.683Z,25.9
2019-06-01T00:37:47.355Z,25.9
2019-06-01T00:42:58.846Z,25.8
2019-06-01T00:48:10.421Z,25.8
2019-06-01T00:53:21.992Z,25.9
2019-06-01T00:58:33.559Z,25.9
2019-06-01T01:03:54.328Z,25.9
2019-06-01T01:09:06.175Z,25.9
2019-06-01T01:14:23.805Z,25.9
2019-06-01T01:19:35.318Z,25.9
2019-06-01T01:24:48.252Z,25.9
2019-06-01T01:29:59.538Z,26
2019-06-01T01:35:11.154Z,26
2019-06-01T01:40:23.677Z,25.8
2019-06-01T01:45:35.274Z,25.9
2019-06-01T01:50:46.836Z,25.9
2019-06-01T01:56:02.478Z,25.9
2019-06-01T02:01:23.799Z,25.8
2019-06-01T02:06:35.358Z,26
2019-06-01T02:11:47.182Z,26
2019-06-01T02:17:03.092Z,26
2019-06-01T02:22:14.649Z,26
2019-06-01T02:29:04.197Z,26
2019-06-01T02:34:15.928Z,26
2019-06-01T02:39:27.534Z,26
2019-06-01T02:44:39.093Z,26
2019-06-01T02:49:55.514Z,26
2019-06-01T02:55:13.786Z,25.8
2019-06-01T03:00:25.351Z,25.6
2019-06-01T03:05:36.651Z,25.5
2019-06-01T03:10:47.661Z,25.5
2019-06-01T03:16:00.000Z,25.6
2019-06-01T03:21:12.437Z,25.6
2019-06-01T03:26:23.719Z,25.6
2019-06-01T03:31:35.297Z,25.6
2019-06-01T03:36:46.309Z,25.6
2019-06-01T03:41:57.593Z,25.6
2019-06-01T03:47:10.233Z,25.6
2019-06-01T03:52:23.832Z,25.6
2019-06-01T03:57:38.622Z,25.6
2019-06-01T04:02:50.235Z,25.6
2019-06-01T04:08:01.830Z,25.6
2019-06-01T04:13:14.492Z,25.6
2019-06-01T04:18:25.774Z,25.6
2019-06-01T04:23:37.068Z,25.6
2019-06-01T04:28:48.409Z,25.6
2019-06-01T04:33:59.396Z,25.6
2019-06-01T04:39:13.611Z,25.6
2019-06-01T04:44:33.983Z,25.6
2019-06-01T04:49:45.493Z,25.7
2019-06-01T04:54:56.780Z,25.7
2019-06-01T05:00:25.599Z,25.7
2019-06-01T05:05:47.836Z,25.7
2019-06-01T05:11:16.723Z,25.8
2019-06-01T05:16:30.278Z,25.8
2019-06-01T05:21:52.475Z,25.8
2019-06-01T05:27:04.244Z,25.8
2019-06-01T05:32:17.281Z,25.9
2019-06-01T05:37:29.955Z,25.9
2019-06-01T05:42:41.735Z,25.9
2019-06-01T05:47:53.305Z,25.9
2019-06-01T05:58:29.169Z,25.9
2019-06-01T06:03:41.016Z,25.9
2019-06-01T06:08:52.495Z,25.9
2019-06-01T06:14:04.059Z,25.9
2019-06-01T06:26:09.916Z,25.9
2019-06-01T06:31:21.647Z,25.9
2019-06-01T06:36:34.371Z,25.9
2019-06-01T06:41:50.024Z,25.9
2019-06-01T06:47:01.654Z,25.9
2019-06-01T06:52:13.165Z,25.8
2019-06-01T06:57:24.769Z,25.8
2019-06-01T07:02:37.132Z,25.8
2019-06-01T07:07:49.186Z,25.8
2019-06-01T07:13:00.199Z,25.8
2019-06-01T07:18:11.487Z,25.9
2019-06-01T07:23:24.310Z,25.9
2019-06-01T07:28:36.577Z,25.9
2019-06-01T07:33:47.852Z,25.9
2019-06-01T07:38:58.865Z,26
2019-06-01T07:44:09.904Z,25.9
2019-06-01T07:49:21.277Z,25.9
2019-06-01T07:54:34.002Z,26
2019-06-01T07:59:45.301Z,26
2019-06-01T08:04:56.319Z,26
2019-06-01T08:10:07.631Z,26
2019-06-01T08:15:18.921Z,26.1
2019-06-01T08:20:32.139Z,26.1
2019-06-01T08:25:47.039Z,26.1
2019-06-01T08:31:00.363Z,26.1
2019-06-01T08:36:11.369Z,26
2019-06-01T08:41:23.871Z,25.8
2019-06-01T08:46:36.659Z,25.7
2019-06-01T08:51:50.018Z,25.7
2019-06-01T08:57:00.973Z,25.7
2019-06-01T09:02:12.560Z,25.7
2019-06-01T09:07:25.295Z,25.6
2019-06-01T09:12:37.651Z,25.6
2019-06-01T09:17:49.213Z,25.6
2019-06-01T09:23:00.223Z,25.4
2019-06-01T09:28:11.523Z,25.5
2019-06-01T09:33:22.801Z,25.4
2019-06-01T09:38:34.257Z,25.3
2019-06-01T09:43:46.835Z,25.4
2019-06-01T09:48:58.125Z,25.4
2019-06-01T09:54:09.404Z,25.5
2019-06-01T09:59:20.686Z,25.5
2019-06-01T10:04:32.784Z,25.5
2019-06-01T10:09:48.131Z,25.5
2019-06-01T10:14:59.696Z,25.6
2019-06-01T10:20:10.705Z,25.6
2019-06-01T10:25:21.718Z,25.6
2019-06-01T10:30:35.688Z,25.6
2019-06-01T10:35:47.313Z,25.6
2019-06-01T10:40:58.895Z,25.6
2019-06-01T10:46:10.455Z,25.6
2019-06-01T10:51:22.015Z,25.6
2019-06-01T10:56:34.855Z,25.6
2019-06-01T11:01:47.099Z,25.7
2019-06-01T11:06:58.748Z,25.7
2019-06-01T11:12:10.063Z,25.7
2019-06-01T11:17:21.631Z,25.7
2019-06-01T11:22:33.926Z,25.7
2019-06-01T11:27:46.215Z,25.7
2019-06-01T11:32:57.513Z,25.7
2019-06-01T11:38:09.071Z,25.7
2019-06-01T11:43:20.635Z,25.7
2019-06-01T11:48:31.922Z,25.7
2019-06-01T11:53:45.240Z,25.8
2019-06-01T11:58:56.961Z,25.8
2019-06-01T12:04:07.964Z,25.8
2019-06-01T12:09:19.256Z,25.8
2019-06-01T12:14:30.829Z,25.8
2019-06-01T12:19:42.890Z,25.9
2019-06-01T12:24:55.826Z,25.9
2019-06-01T12:30:07.403Z,26
2019-06-01T12:35:18.768Z,25.9
2019-06-01T12:40:30.327Z,25.9
2019-06-01T12:45:45.753Z,26
2019-06-01T12:50:58.885Z,25.9
2019-06-01T12:56:15.983Z,26
2019-06-01T13:01:31.619Z,25.9
2019-06-01T13:06:42.904Z,25.9
2019-06-01T13:17:19.015Z,25.9
2019-06-01T13:22:30.562Z,25.9
2019-06-01T13:27:46.314Z,26
2019-06-01T13:32:57.705Z,25.9
2019-06-01T13:38:12.960Z,25.9
2019-06-01T13:43:23.971Z,25.9
2019-06-01T13:48:34.704Z,25.9
2019-06-01T13:53:46.867Z,25.9
2019-06-01T13:58:59.519Z,25.9
2019-06-01T14:04:10.807Z,25.9
2019-06-01T14:09:22.723Z,25.9
2019-06-01T14:14:33.716Z,25.9
2019-06-01T14:19:47.307Z,25.8
2019-06-01T14:25:14.850Z,25.7
2019-06-01T14:30:36.131Z,25.6
2019-06-01T14:35:48.584Z,25.5
2019-06-01T14:41:01.462Z,25.4
2019-06-01T14:46:13.028Z,25.3
2019-06-01T14:51:24.624Z,25.3
2019-06-01T14:56:36.178Z,25.1
2019-06-01T15:01:48.625Z,25
2019-06-01T15:07:00.863Z,25
2019-06-01T15:12:12.439Z,24.9
2019-06-01T15:17:24.009Z,24.8
2019-06-01T15:22:35.570Z,24.8
2019-06-01T15:27:46.848Z,24.7
2019-06-01T15:38:22.456Z,24.6
2019-06-01T15:43:34.064Z,24.6
2019-06-01T15:48:45.355Z,24.6
2019-06-01T15:53:57.149Z,24.6
2019-06-01T15:59:10.099Z,24.5
2019-06-01T16:04:21.668Z,24.4
2019-06-01T16:09:43.553Z,24.5
2019-06-01T16:14:55.630Z,24.6
2019-06-01T16:20:07.210Z,24.6
2019-06-01T16:25:18.774Z,24.7
2019-06-01T16:30:30.341Z,24.7
2019-06-01T16:35:41.619Z,24.8
2019-06-01T16:40:53.188Z,24.9
2019-06-01T16:46:05.945Z,24.9
2019-06-01T16:51:16.738Z,25
2019-06-01T16:56:28.319Z,25
2019-06-01T17:01:39.890Z,25
2019-06-01T17:06:51.436Z,25.1
2019-06-01T17:12:03.450Z,25.1
2019-06-01T17:17:15.445Z,25.1
2019-06-01T17:22:29.704Z,25.2
2019-06-01T17:27:41.271Z,25.2
2019-06-01T17:32:52.595Z,25.2
2019-06-01T17:38:05.144Z,25.2
2019-06-01T17:43:18.267Z,25.3
2019-06-01T17:48:29.551Z,25.3
2019-06-01T17:53:40.835Z,25.3
2019-06-01T17:58:56.155Z,25.3
2019-06-01T18:04:10.547Z,25.3
2019-06-01T18:09:22.759Z,25.3
2019-06-01T18:14:34.306Z,25.3
2019-06-01T18:19:45.320Z,25.4
2019-06-01T18:24:57.230Z,25.3
2019-06-01T18:30:09.229Z,25.3
2019-06-01T18:35:22.036Z,25.4
2019-06-01T18:40:33.323Z,25.4
2019-06-01T18:45:44.882Z,25.4
2019-06-01T18:50:55.614Z,25.4
2019-06-01T18:56:06.617Z,25.4
2019-06-01T19:01:21.473Z,25.4
2019-06-01T19:06:32.465Z,25.4
2019-06-01T19:11:43.744Z,25.4
2019-06-01T19:16:55.318Z,25.4
2019-06-01T19:22:06.601Z,25.5
2019-06-01T19:27:19.200Z,25.5
2019-06-01T19:32:29.946Z,25.5
2019-06-01T19:37:41.553Z,25.5
2019-06-01T19:42:52.829Z,25.5
2019-06-01T19:48:08.008Z,25.5
2019-06-01T19:53:20.804Z,25.5
2019-06-01T19:58:32.369Z,25.5
2019-06-01T20:03:43.941Z,25.5
2019-06-01T20:08:55.220Z,25.5
2019-06-01T20:14:06.786Z,25.5
2019-06-01T20:19:18.576Z,25.5
2019-06-01T20:24:31.016Z,25.5
2019-06-01T20:29:44.911Z,25.5
2019-06-01T20:34:56.145Z,25.5
2019-06-01T20:40:07.718Z,25.5
2019-06-01T20:50:47.418Z,25.5
2019-06-01T20:56:01.573Z,25.5
2019-06-01T21:01:17.540Z,25.5
2019-06-01T21:06:33.593Z,25.5
2019-06-01T21:17:11.929Z,25.5
2019-06-01T21:22:27.376Z,25.5
2019-06-01T21:27:38.940Z,25.5
2019-06-01T21:32:49.679Z,25.5
2019-06-01T21:38:00.690Z,25.5
2019-06-01T21:43:34.337Z,25.5
2019-06-01T21:48:49.428Z,25.5
2019-06-01T21:54:00.956Z,25.6
2019-06-01T21:59:12.516Z,25.6
2019-06-01T22:04:27.196Z,25.6
2019-06-01T22:09:38.775Z,25.6
2019-06-01T22:14:49.792Z,25.6
2019-06-01T22:20:01.084Z,25.6
2019-06-01T22:25:12.655Z,25.6
2019-06-01T22:30:25.014Z,25.6
2019-06-01T22:35:36.945Z,25.6
2019-06-01T22:40:48.228Z,25.6
2019-06-01T22:45:59.536Z,25.6
2019-06-01T22:51:10.803Z,25.6
2019-06-01T22:56:23.169Z,25.6
2019-06-01T23:01:34.775Z,25.5
2019-06-01T23:06:46.338Z,25.6
2019-06-01T23:11:57.621Z,25.6
2019-06-01T23:17:09.188Z,25.6
2019-06-01T23:22:21.887Z,25.6
2019-06-01T23:27:33.173Z,25.6
2019-06-01T23:32:44.472Z,25.6
2019-06-01T23:37:56.039Z,25.6
2019-06-01T23:43:07.837Z,25.7
2019-06-01T23:48:19.448Z,25.7
2019-06-01T23:53:32.007Z,25.7
2019-06-01T23:58:45.107Z,25.7
